Aviation Digital Data Service (ADDS)

Output produced by METARs form (1003 UTC 21 November 2017)
found at http://aviationweather.gov/adds/metars/
 
KACY 210530Z 2106/2206 21006KT P6SM SCT250 
     FM211400 21011G23KT P6SM SCT250 
     FM212200 19010KT P6SM BKN200 
     FM220400 21010KT P6SM OVC050